createdAt,value
2023-05-18T00:00:17.340Z,92.30
2023-05-18T00:03:23.277Z,92.71
2023-05-18T00:06:26.042Z,93.09
2023-05-18T00:09:37.323Z,93.02
2023-05-18T00:12:39.674Z,93.16
2023-05-18T00:15:42.052Z,92.71
2023-05-18T00:18:47.452Z,92.46
2023-05-18T00:22:00.127Z,93.07
2023-05-18T00:25:06.981Z,92.66
2023-05-18T00:28:09.921Z,93.20
2023-05-18T00:31:16.055Z,93.02
2023-05-18T00:34:20.773Z,93.01
2023-05-18T00:37:23.883Z,93.45
2023-05-18T00:40:32.053Z,93.77
2023-05-18T00:43:37.455Z,93.65
2023-05-18T00:46:44.123Z,93.45
2023-05-18T00:49:47.204Z,93.93
2023-05-18T00:52:53.987Z,93.43
2023-05-18T00:55:57.621Z,93.70
2023-05-18T00:59:02.311Z,93.91
2023-05-18T01:02:06.373Z,94.15
2023-05-18T01:05:19.355Z,94.08
2023-05-18T01:08:28.249Z,94.17
2023-05-18T01:12:08.506Z,94.58
2023-05-18T01:15:18.661Z,94.38
2023-05-18T01:18:32.925Z,94.74
2023-05-18T01:21:56.359Z,95.28
2023-05-18T01:25:32.910Z,95.24
2023-05-18T01:28:40.624Z,94.87
2023-05-18T01:31:46.185Z,95.06
2023-05-18T01:34:51.515Z,95.43
2023-05-18T01:37:54.778Z,94.81
2023-05-18T01:41:10.349Z,94.50
2023-05-18T01:44:29.755Z,94.52
2023-05-18T01:47:37.010Z,94.27
2023-05-18T01:50:47.243Z,94.70
2023-05-18T01:54:05.429Z,94.76
2023-05-18T01:57:21.494Z,94.61
2023-05-18T02:00:28.163Z,94.50
2023-05-18T02:03:32.672Z,94.45
2023-05-18T02:06:39.474Z,94.20
2023-05-18T02:09:45.134Z,94.24
2023-05-18T02:12:53.444Z,93.89
2023-05-18T02:15:58.372Z,94.48
2023-05-18T02:19:03.559Z,94.48
2023-05-18T02:22:11.140Z,94.44
2023-05-18T02:25:13.933Z,94.50
2023-05-18T02:28:17.264Z,94.33
2023-05-18T02:31:20.306Z,93.91
2023-05-18T02:34:24.802Z,94.44
2023-05-18T02:37:29.241Z,94.23
2023-05-18T02:40:31.948Z,93.98
2023-05-18T02:43:41.250Z,94.16
2023-05-18T02:46:45.241Z,93.62
2023-05-18T02:49:49.669Z,93.15
2023-05-18T02:52:52.856Z,93.88
2023-05-18T02:55:59.452Z,93.50
2023-05-18T02:59:09.015Z,93.55
2023-05-18T03:02:19.591Z,93.93
2023-05-18T03:05:23.999Z,93.39
2023-05-18T03:08:31.603Z,93.06
2023-05-18T03:11:36.083Z,93.04
2023-05-18T03:14:42.016Z,93.01
2023-05-18T03:17:46.475Z,93.14
2023-05-18T03:20:52.382Z,92.53
2023-05-18T03:23:57.086Z,92.96
2023-05-18T03:27:01.188Z,92.72
2023-05-18T03:30:11.252Z,93.12
2023-05-18T03:33:16.386Z,92.91
2023-05-18T03:36:19.066Z,93.42
2023-05-18T03:39:26.803Z,92.82
2023-05-18T03:42:30.494Z,93.43
2023-05-18T03:45:37.400Z,92.98
2023-05-18T03:48:44.102Z,93.68
2023-05-18T03:51:47.676Z,93.78
2023-05-18T03:54:54.492Z,93.37
2023-05-18T03:58:01.200Z,93.53
2023-05-18T04:01:04.912Z,93.71
2023-05-18T04:04:10.342Z,93.85
2023-05-18T04:07:18.646Z,93.62
2023-05-18T04:10:25.668Z,93.34
2023-05-18T04:13:47.130Z,93.49
2023-05-18T04:16:49.659Z,93.45
2023-05-18T04:19:59.017Z,93.54
2023-05-18T04:23:05.820Z,93.53
2023-05-18T04:26:09.993Z,93.48
2023-05-18T04:29:24.265Z,93.91
2023-05-18T04:32:28.548Z,93.88
2023-05-18T04:35:32.321Z,93.79
2023-05-18T04:38:39.526Z,94.16
2023-05-18T04:41:42.972Z,93.95
2023-05-18T04:44:49.017Z,94.05
2023-05-18T04:47:57.032Z,94.19
2023-05-18T04:50:59.689Z,94.24
2023-05-18T04:54:07.869Z,94.03
2023-05-18T04:57:15.386Z,94.49
2023-05-18T05:00:19.484Z,94.48
2023-05-18T05:03:23.163Z,95.04
2023-05-18T05:06:30.351Z,94.81
2023-05-18T05:09:43.651Z,95.24
2023-05-18T05:12:49.195Z,94.82
2023-05-18T05:15:56.315Z,94.97
2023-05-18T05:19:02.903Z,94.86
2023-05-18T05:22:09.534Z,94.90
2023-05-18T05:25:13.925Z,94.82
2023-05-18T05:28:18.405Z,94.71
2023-05-18T05:31:21.437Z,94.87
2023-05-18T05:34:28.203Z,94.73
2023-05-18T05:37:37.582Z,94.78
2023-05-18T05:40:43.309Z,95.02
2023-05-18T05:43:49.263Z,94.77
2023-05-18T05:46:53.636Z,94.72
2023-05-18T05:49:56.090Z,94.82
2023-05-18T05:53:04.327Z,94.74
2023-05-18T05:56:11.607Z,94.56
2023-05-18T05:59:17.748Z,94.30
2023-05-18T06:02:20.607Z,94.04
2023-05-18T06:05:23.898Z,94.00
2023-05-18T06:08:27.609Z,94.39
2023-05-18T06:11:31.988Z,94.88
2023-05-18T06:14:33.884Z,93.99
2023-05-18T06:17:36.355Z,94.25
2023-05-18T06:20:38.990Z,94.28
2023-05-18T06:23:42.246Z,94.11
2023-05-18T06:27:08.682Z,93.82
2023-05-18T06:30:14.209Z,93.25
2023-05-18T06:33:40.417Z,93.92
2023-05-18T06:36:42.259Z,93.44
2023-05-18T06:39:44.464Z,92.76
2023-05-18T06:42:46.295Z,93.17
2023-05-18T06:46:07.938Z,91.99
2023-05-18T06:49:13.550Z,92.58
2023-05-18T06:52:15.774Z,91.63
2023-05-18T06:55:19.234Z,91.75
2023-05-18T06:58:21.554Z,91.50
2023-05-18T07:01:24.398Z,91.90
2023-05-18T07:04:29.679Z,90.32
2023-05-18T07:07:34.102Z,90.05
2023-05-18T07:10:38.701Z,88.42
2023-05-18T07:13:41.334Z,86.81
2023-05-18T07:16:48.861Z,85.06
2023-05-18T07:19:56.299Z,84.74
2023-05-18T07:22:58.540Z,84.54
2023-05-18T07:26:04.541Z,82.83
2023-05-18T07:29:10.199Z,82.62
2023-05-18T07:32:14.475Z,82.61
2023-05-18T07:35:20.646Z,80.51
2023-05-18T07:38:22.589Z,82.08
2023-05-18T07:41:29.799Z,81.43
2023-05-18T07:44:33.865Z,81.40
2023-05-18T07:47:36.965Z,80.42
2023-05-18T07:50:45.549Z,79.73
2023-05-18T07:53:54.867Z,76.93
2023-05-18T07:57:00.871Z,75.21
2023-05-18T08:00:07.946Z,76.23
2023-05-18T08:03:16.499Z,76.21
2023-05-18T08:06:23.505Z,73.37
2023-05-18T08:09:26.259Z,73.80
2023-05-18T08:12:30.154Z,72.99
2023-05-18T08:15:32.515Z,73.10
2023-05-18T08:18:37.462Z,71.99
2023-05-18T08:21:41.560Z,71.74
2023-05-18T08:24:45.465Z,72.14
2023-05-18T08:27:51.624Z,72.02
2023-05-18T08:30:56.647Z,71.52
2023-05-18T08:34:04.775Z,71.05
2023-05-18T08:37:08.250Z,71.51
2023-05-18T08:40:15.156Z,70.31
2023-05-18T08:43:33.640Z,70.13
2023-05-18T08:46:50.507Z,68.18
2023-05-18T08:49:56.608Z,67.90
2023-05-18T08:53:06.720Z,67.12
2023-05-18T08:56:12.598Z,67.23
2023-05-18T08:59:33.221Z,66.94
2023-05-18T09:02:43.672Z,67.38
2023-05-18T09:05:51.124Z,66.12
2023-05-18T09:08:54.206Z,65.24
2023-05-18T09:12:01.273Z,66.31
2023-05-18T09:15:17.900Z,65.83
2023-05-18T09:18:22.200Z,66.41
2023-05-18T09:21:31.540Z,65.72
2023-05-18T09:24:34.603Z,65.59
2023-05-18T09:27:41.642Z,65.30
2023-05-18T09:30:46.720Z,66.15
2023-05-18T09:33:51.798Z,65.36
2023-05-18T09:36:57.753Z,64.58
2023-05-18T09:40:05.320Z,64.49
2023-05-18T09:43:11.625Z,63.67
2023-05-18T09:46:14.622Z,63.28
2023-05-18T09:49:23.759Z,61.95
2023-05-18T09:52:28.287Z,62.66
2023-05-18T09:55:32.983Z,62.96
2023-05-18T09:58:43.637Z,63.75
2023-05-18T10:02:03.123Z,63.05
2023-05-18T10:05:19.368Z,63.70
2023-05-18T10:08:21.505Z,63.78
2023-05-18T10:11:24.356Z,63.05
2023-05-18T10:14:31.605Z,63.33
2023-05-18T10:17:34.533Z,63.93
2023-05-18T10:20:36.894Z,64.05
2023-05-18T10:23:41.811Z,63.33
2023-05-18T10:26:45.705Z,61.11
2023-05-18T10:29:50.837Z,61.40
2023-05-18T10:32:55.106Z,60.92
2023-05-18T10:35:58.670Z,59.95
2023-05-18T10:39:02.890Z,59.61
2023-05-18T10:42:09.308Z,60.41
2023-05-18T10:45:12.047Z,59.68
2023-05-18T10:48:18.165Z,59.29
2023-05-18T10:51:21.409Z,58.62
2023-05-18T10:54:23.707Z,58.06
2023-05-18T10:57:28.185Z,57.59
2023-05-18T11:00:35.338Z,58.97
2023-05-18T11:03:41.369Z,58.75
2023-05-18T11:06:43.217Z,57.73
2023-05-18T11:09:48.862Z,57.58
2023-05-18T11:12:51.381Z,58.98
2023-05-18T11:15:53.598Z,57.89
2023-05-18T11:19:07.334Z,57.42
2023-05-18T11:22:12.728Z,57.67
2023-05-18T11:25:32.610Z,57.33
2023-05-18T11:28:43.112Z,57.08
2023-05-18T11:31:46.899Z,57.48
2023-05-18T11:34:53.795Z,57.94
2023-05-18T11:37:55.845Z,57.67
2023-05-18T11:40:59.528Z,58.56
2023-05-18T11:44:16.565Z,56.90
2023-05-18T11:47:18.902Z,58.23
2023-05-18T11:50:21.388Z,57.45
2023-05-18T11:53:25.539Z,57.10
2023-05-18T11:56:33.451Z,56.26
2023-05-18T11:59:41.126Z,55.92
2023-05-18T12:02:51.302Z,56.36
2023-05-18T12:05:57.869Z,56.24
2023-05-18T12:09:00.923Z,56.91
2023-05-18T12:12:03.624Z,56.94
2023-05-18T12:15:09.620Z,57.43
2023-05-18T12:18:14.773Z,57.17
2023-05-18T12:21:25.221Z,56.38
2023-05-18T12:24:26.855Z,56.06
2023-05-18T12:27:29.329Z,56.72
2023-05-18T12:30:38.449Z,56.20
2023-05-18T12:33:40.122Z,55.26
2023-05-18T12:36:53.734Z,55.67
2023-05-18T12:39:55.813Z,54.74
2023-05-18T12:42:59.831Z,54.07
2023-05-18T12:46:02.784Z,54.27
2023-05-18T12:49:06.290Z,54.95
2023-05-18T12:52:13.589Z,54.02
2023-05-18T12:55:21.818Z,53.55
2023-05-18T12:58:24.802Z,53.38
2023-05-18T13:01:29.333Z,51.89
2023-05-18T13:04:43.986Z,52.87
2023-05-18T13:07:46.427Z,52.96
2023-05-18T13:11:01.113Z,52.19
2023-05-18T13:14:10.635Z,52.38
2023-05-18T13:17:22.674Z,52.54
2023-05-18T13:20:36.545Z,51.36
2023-05-18T13:23:39.438Z,52.06
2023-05-18T13:26:41.167Z,52.48
2023-05-18T13:29:45.382Z,51.38
2023-05-18T13:32:47.751Z,50.56
2023-05-18T13:35:51.112Z,49.73
2023-05-18T13:38:53.059Z,50.45
2023-05-18T13:41:55.500Z,50.81
2023-05-18T13:44:57.623Z,51.00
2023-05-18T13:48:03.662Z,51.31
2023-05-18T13:51:06.303Z,51.77
2023-05-18T13:54:08.223Z,52.11
2023-05-18T13:57:10.053Z,50.37
2023-05-18T14:00:13.847Z,50.24
2023-05-18T14:03:20.921Z,50.88
2023-05-18T14:06:23.289Z,50.33
2023-05-18T14:09:29.767Z,50.08
2023-05-18T14:12:32.447Z,50.17
2023-05-18T14:15:35.824Z,49.16
2023-05-18T14:18:38.971Z,49.29
2023-05-18T14:21:42.196Z,49.26
2023-05-18T14:24:43.987Z,48.76
2023-05-18T14:27:46.125Z,49.18
2023-05-18T14:30:48.228Z,48.57
2023-05-18T14:33:50.832Z,49.88
2023-05-18T14:36:53.150Z,50.28
2023-05-18T14:39:54.867Z,50.14
2023-05-18T14:42:56.894Z,50.59
2023-05-18T14:46:08.248Z,50.77
2023-05-18T14:49:12.180Z,50.70
2023-05-18T14:52:15.619Z,49.92
2023-05-18T14:55:19.619Z,50.12
2023-05-18T14:58:22.387Z,50.65
2023-05-18T15:01:24.517Z,50.84
2023-05-18T15:04:28.103Z,50.51
2023-05-18T15:07:30.360Z,50.75
2023-05-18T15:10:32.956Z,50.94
2023-05-18T15:13:34.793Z,51.04
2023-05-18T15:16:37.488Z,50.93
2023-05-18T15:19:39.799Z,51.03
2023-05-18T15:22:41.905Z,51.49
2023-05-18T15:25:43.590Z,50.70
2023-05-18T15:28:47.346Z,51.88
2023-05-18T15:31:51.165Z,52.04
2023-05-18T15:34:53.463Z,51.20
2023-05-18T15:37:55.934Z,50.59
2023-05-18T15:40:58.659Z,51.22
2023-05-18T15:44:02.037Z,51.50
2023-05-18T15:47:05.131Z,51.52
2023-05-18T15:50:07.327Z,52.08
2023-05-18T15:53:10.141Z,52.10
2023-05-18T15:56:12.302Z,52.41
2023-05-18T15:59:14.313Z,52.72
2023-05-18T16:02:16.250Z,53.09
2023-05-18T16:05:17.975Z,53.24
2023-05-18T16:08:20.636Z,53.32
2023-05-18T16:11:23.063Z,54.16
2023-05-18T16:14:24.754Z,53.76
2023-05-18T16:17:26.619Z,53.46
2023-05-18T16:20:31.600Z,54.03
2023-05-18T16:23:33.482Z,54.10
2023-05-18T16:26:36.794Z,54.27
2023-05-18T16:29:41.540Z,55.06
2023-05-18T16:32:44.502Z,55.99
2023-05-18T16:35:46.764Z,55.77
2023-05-18T16:38:52.294Z,55.40
2023-05-18T16:41:53.943Z,56.01
2023-05-18T16:44:56.011Z,55.88
2023-05-18T16:48:00.254Z,57.08
2023-05-18T16:51:07.017Z,57.07
2023-05-18T16:54:09.929Z,57.28
2023-05-18T16:57:13.590Z,57.62
2023-05-18T17:00:19.510Z,57.61
2023-05-18T17:03:22.302Z,58.67
2023-05-18T17:06:25.446Z,58.73
2023-05-18T17:09:27.185Z,59.12
2023-05-18T17:12:29.054Z,59.25
2023-05-18T17:15:32.138Z,59.16
2023-05-18T17:18:33.917Z,59.66
2023-05-18T17:21:36.531Z,59.92
2023-05-18T17:24:38.652Z,60.15
2023-05-18T17:27:40.875Z,59.67
2023-05-18T17:30:42.716Z,59.93
2023-05-18T17:33:47.413Z,60.13
2023-05-18T17:36:49.972Z,60.50
2023-05-18T17:39:52.000Z,60.67
2023-05-18T17:42:54.241Z,61.48
2023-05-18T17:46:00.212Z,61.55
2023-05-18T17:49:06.674Z,61.68
2023-05-18T17:52:09.533Z,62.01
2023-05-18T17:55:13.064Z,61.97
2023-05-18T17:58:15.182Z,61.99
2023-05-18T18:01:17.516Z,62.22
2023-05-18T18:04:20.223Z,62.85
2023-05-18T18:07:22.498Z,63.30
2023-05-18T18:10:27.006Z,63.61
2023-05-18T18:13:28.685Z,63.77
2023-05-18T18:16:30.869Z,64.17
2023-05-18T18:19:32.549Z,64.71
2023-05-18T18:22:35.808Z,64.52
2023-05-18T18:25:37.772Z,64.32
2023-05-18T18:28:41.082Z,64.45
2023-05-18T18:31:43.068Z,65.26
2023-05-18T18:34:44.743Z,64.86
2023-05-18T18:37:48.969Z,65.23
2023-05-18T18:40:51.241Z,65.95
2023-05-18T18:43:54.774Z,66.29
2023-05-18T18:46:56.559Z,66.58
2023-05-18T18:49:58.700Z,66.65
2023-05-18T18:53:00.386Z,66.97
2023-05-18T18:56:04.114Z,67.25
2023-05-18T18:59:06.171Z,67.43
2023-05-18T19:02:08.720Z,66.81
2023-05-18T19:05:10.861Z,67.27
2023-05-18T19:08:12.609Z,67.90
2023-05-18T19:11:15.314Z,67.76
2023-05-18T19:14:17.429Z,68.17
2023-05-18T19:17:19.272Z,69.31
2023-05-18T19:20:22.696Z,68.88
2023-05-18T19:23:24.791Z,69.08
2023-05-18T19:26:28.372Z,69.15
2023-05-18T19:29:31.968Z,69.34
2023-05-18T19:32:34.032Z,69.14
2023-05-18T19:35:37.035Z,69.54
2023-05-18T19:38:39.346Z,70.41
2023-05-18T19:41:40.891Z,70.58
2023-05-18T19:44:43.017Z,70.12
2023-05-18T19:47:45.137Z,70.63
2023-05-18T19:50:46.750Z,70.39
2023-05-18T19:53:48.397Z,71.12
2023-05-18T19:56:52.113Z,71.14
2023-05-18T19:59:53.787Z,70.67
2023-05-18T20:02:55.707Z,71.27
2023-05-18T20:05:58.106Z,71.47
2023-05-18T20:09:00.783Z,71.61
2023-05-18T20:12:03.069Z,71.75
2023-05-18T20:15:05.520Z,72.15
2023-05-18T20:18:08.636Z,72.76
2023-05-18T20:21:10.838Z,72.51
2023-05-18T20:24:13.036Z,72.33
2023-05-18T20:27:15.862Z,71.79
2023-05-18T20:30:17.436Z,72.36
2023-05-18T20:33:20.411Z,72.76
2023-05-18T20:36:22.715Z,72.12
2023-05-18T20:39:26.171Z,71.71
2023-05-18T20:42:38.647Z,72.31
2023-05-18T20:45:41.451Z,72.33
2023-05-18T20:48:44.822Z,72.26
2023-05-18T20:51:46.400Z,72.63
2023-05-18T20:54:48.011Z,72.24
2023-05-18T20:57:51.437Z,72.27
2023-05-18T21:00:55.492Z,72.34
2023-05-18T21:03:59.894Z,72.31
2023-05-18T21:07:02.169Z,72.78
2023-05-18T21:10:09.732Z,72.23
2023-05-18T21:13:14.597Z,72.29
2023-05-18T21:16:17.104Z,72.81
2023-05-18T21:19:19.717Z,72.77
2023-05-18T21:22:21.995Z,72.56
2023-05-18T21:25:24.407Z,72.53
2023-05-18T21:28:27.069Z,73.14
2023-05-18T21:31:29.185Z,72.74
2023-05-18T21:34:32.033Z,72.51
2023-05-18T21:37:35.869Z,71.84
2023-05-18T21:41:03.458Z,72.20
2023-05-18T21:44:10.032Z,72.34
2023-05-18T21:47:12.039Z,72.14
2023-05-18T21:50:16.834Z,72.94
2023-05-18T21:53:19.266Z,72.88
2023-05-18T21:56:21.484Z,73.18
2023-05-18T21:59:23.503Z,72.38
2023-05-18T22:02:25.880Z,72.22
2023-05-18T22:05:34.012Z,72.15
2023-05-18T22:08:38.625Z,72.21
2023-05-18T22:11:40.781Z,72.14
2023-05-18T22:14:42.844Z,72.58
2023-05-18T22:17:46.146Z,72.68
2023-05-18T22:20:48.300Z,72.79
2023-05-18T22:23:49.875Z,72.67
2023-05-18T22:26:51.978Z,72.91
2023-05-18T22:29:57.270Z,73.04
2023-05-18T22:33:00.749Z,73.56
2023-05-18T22:36:03.226Z,73.49
2023-05-18T22:39:05.443Z,73.44
2023-05-18T22:42:08.301Z,73.53
2023-05-18T22:45:11.934Z,73.75
2023-05-18T22:48:14.124Z,74.29
2023-05-18T22:51:18.094Z,73.84
2023-05-18T22:54:20.174Z,73.34
2023-05-18T22:57:22.205Z,73.70
2023-05-18T23:00:24.017Z,73.87
2023-05-18T23:03:25.687Z,74.11
2023-05-18T23:06:27.356Z,74.54
2023-05-18T23:09:30.549Z,74.19
2023-05-18T23:12:34.675Z,74.77
2023-05-18T23:15:37.193Z,74.98
2023-05-18T23:18:39.224Z,74.58
2023-05-18T23:21:41.152Z,74.94
2023-05-18T23:24:43.476Z,74.64
2023-05-18T23:27:45.486Z,75.24
2023-05-18T23:30:47.371Z,75.68
2023-05-18T23:33:51.733Z,75.34
2023-05-18T23:36:54.510Z,75.10
2023-05-18T23:39:57.664Z,75.31
2023-05-18T23:43:03.550Z,75.72
2023-05-18T23:46:06.680Z,75.46
2023-05-18T23:49:09.410Z,76.11
2023-05-18T23:52:13.941Z,76.04
2023-05-18T23:55:22.149Z,75.59
2023-05-18T23:58:32.187Z,76.58
